Grantham, United Kingdom
Current Conditions -  °F | °C
As of 1:50 PM on Sunday 23 Nov 2014 (Local Time) from EGYD Reporting Station
Broken Clouds Broken Clouds  
Wind Chill: 42°   Ceiling: 3000
Heat Index: 45°   Visibility: 6mi
Dew Point: 43°   Wind: 5mph
Humidity: 93%   Direction: 240°WSW
Pressure: 30"   Gusts: NA
Location:  52.92°N, 0.64°W
Report Text: EGYD 231350Z 24004KT 9999 FEW006 SCT018 BKN030 07/06 Q1016 WHT TEMPO FEW018 BLU
Loading
Personal Weather Stations






























Interactive Weather Map New forecast layout! Learn more

10-Day Weather Forecast

Advertisements
Track Severe Weather on mobile